Loodiep — A8ZO7 — position and weather

sailwx.info

Track history (hours):
 
Tides and Currents Weather Stations Pressure Air Temp Water Temp Dewpoint Dewpoint Depression Visibility Wind Speed Wind Dir Waves Ship Positions

Loodiep

Last reported at 2014-Sep-16 12:11 UTC. Time now 2014-Sep-16 13:24 UTC.
Position N 56°56' E 010°29'.

Length 108 m; draft 7.3 m.

Type: Cargo ship. MMSI: 636015263.

Date/timePositionNaut miles runAvg speedWind from/ knotsBaromVisibWave heightAir tempDewpointWater temp
2014-Sep-16 12:11N 56°56' E 010°29'0 0.0
2014-Sep-16 11:23N 56°56' E 010°29'0 0.0
2014-Sep-16 10:17N 56°56' E 010°29'0 0.0
2014-Sep-16 09:29N 56°56' E 010°29'0 0.0
2014-Sep-16 08:11N 56°56' E 010°29'0 0.0
2014-Sep-16 07:20N 56°56' E 010°29'0 0.0
2014-Sep-16 06:29N 56°56' E 010°29'0 0.0
2014-Sep-16 05:05N 56°56' E 010°29'0 0.0
2014-Sep-16 04:05N 56°56' E 010°29'0 0.0
2014-Sep-16 03:23N 56°56' E 010°29'0 0.0
2014-Sep-16 02:17N 56°56' E 010°29'0 0.0
2014-Sep-15 13:11N 56°56' E 010°29'  
2014-Sep-13 07:21N 56°56' E 010°29'0 0.0
2014-Sep-13 06:33N 56°56' E 010°29'0 0.0
2014-Sep-12 23:30N 56°56' E 010°29'0 0.0
2014-Sep-12 22:32N 56°56' E 010°29'0 0.0
2014-Sep-12 21:30N 56°56' E 010°29'0 0.0
2014-Sep-12 20:30N 56°56' E 010°29'0 0.1
2014-Sep-12 19:33N 56°56' E 010°29'0 0.1
2014-Sep-12 18:33N 56°56' E 010°29'0 0.0
2014-Sep-12 17:33N 56°56' E 010°29'0 0.0
2014-Sep-12 16:32N 56°56' E 010°29'0 0.0
2014-Sep-12 15:33N 56°56' E 010°29'0 0.0
2014-Sep-12 14:33N 56°56' E 010°29'0 0.0
2014-Sep-12 13:20N 56°56' E 010°29'1 0.7
2014-Sep-12 12:33N 56°55' E 010°29'7 6.6
2014-Sep-12 11:33N 56°51' E 010°38'9 7.8
2014-Sep-12 10:26N 56°56' E 010°51'9 9.7
2014-Sep-12 09:33N 57°05' E 010°48'10 9.9
2014-Sep-12 08:33N 57°14' E 010°43'10 9.5
2014-Sep-12 07:32N 57°24' E 010°43'1010.1
2014-Sep-12 06:31N 57°34' E 010°44'12 9.7
2014-Sep-12 05:14N 57°47' E 010°44'710.4
2014-Sep-12 04:33N 57°47' E 010°31'1410.5
2014-Sep-12 03:13N 57°46' E 010°05'710.2
2014-Sep-12 02:33N 57°42' E 009°54'5910.8
2014-Sep-11 21:08N 57°11' E 008°21'910.7
2014-Sep-11 20:16N 57°04' E 008°10'811.1
2014-Sep-11 19:33N 56°58' E 008°02'1110.8
2014-Sep-11 18:33N 56°49' E 007°51'203 9.6
2014-Sep-10 21:25N 53°53' E 004°52'9 9.6
2014-Sep-10 20:31N 53°44' E 004°51'10 9.6
2014-Sep-10 19:27N 53°34' E 004°48'910.0
2014-Sep-10 18:33N 53°26' E 004°43'2711.1
2014-Sep-10 16:06N 53°01' E 004°24'611.0
2014-Sep-10 15:33N 52°56' E 004°20'1010.5
2014-Sep-10 14:33N 52°47' E 004°10'10 9.9
2014-Sep-10 13:33N 52°40' E 003°58'21 9.1
2014-Sep-10 11:18N 52°25' E 003°35'6 8.4
2014-Sep-10 10:32N 52°21' E 003°27'47 8.7
2014-Sep-10 05:08N 51°46' E 002°37'610.6
2014-Sep-10 04:33N 51°41' E 002°30'1211.1
2014-Sep-10 03:30N 51°32' E 002°18'1211.5
2014-Sep-10 02:28N 51°22' E 002°09'1111.7
2014-Sep-10 01:33N 51°13' E 002°00'141 9.4
2014-Sep-09 10:33N 50°06' W 001°17'  
Track history (hours):
 
Tides and Currents Weather Stations Pressure Air Temp Water Temp Dewpoint Dewpoint Depression Visibility Wind Speed Wind Dir Waves Ship Positions

Loodiep

Last reported at 2014-Sep-16 12:11 UTC. Time now 2014-Sep-16 13:24 UTC.
Position N 56°56' E 010°29'.

Length 108 m; draft 7.3 m.

Type: Cargo ship. MMSI: 636015263.

Date/timePositionNaut miles runAvg speedWind from/ knotsBaromVisibWave heightAir tempDewpointWater temp
2014-Sep-16 12:11N 56°56' E 010°29'0 0.0
2014-Sep-16 11:23N 56°56' E 010°29'0 0.0
2014-Sep-16 10:17N 56°56' E 010°29'0 0.0
2014-Sep-16 09:29N 56°56' E 010°29'0 0.0
2014-Sep-16 08:11N 56°56' E 010°29'0 0.0
2014-Sep-16 07:20N 56°56' E 010°29'0 0.0
2014-Sep-16 06:29N 56°56' E 010°29'0 0.0
2014-Sep-16 05:05N 56°56' E 010°29'0 0.0
2014-Sep-16 04:05N 56°56' E 010°29'0 0.0
2014-Sep-16 03:23N 56°56' E 010°29'0 0.0
2014-Sep-16 02:17N 56°56' E 010°29'0 0.0
2014-Sep-15 13:11N 56°56' E 010°29'  
2014-Sep-13 07:21N 56°56' E 010°29'0 0.0
2014-Sep-13 06:33N 56°56' E 010°29'0 0.0
2014-Sep-12 23:30N 56°56' E 010°29'0 0.0
2014-Sep-12 22:32N 56°56' E 010°29'0 0.0
2014-Sep-12 21:30N 56°56' E 010°29'0 0.0
2014-Sep-12 20:30N 56°56' E 010°29'0 0.1
2014-Sep-12 19:33N 56°56' E 010°29'0 0.1
2014-Sep-12 18:33N 56°56' E 010°29'0 0.0
2014-Sep-12 17:33N 56°56' E 010°29'0 0.0
2014-Sep-12 16:32N 56°56' E 010°29'0 0.0
2014-Sep-12 15:33N 56°56' E 010°29'0 0.0
2014-Sep-12 14:33N 56°56' E 010°29'0 0.0
2014-Sep-12 13:20N 56°56' E 010°29'1 0.7
2014-Sep-12 12:33N 56°55' E 010°29'7 6.6
2014-Sep-12 11:33N 56°51' E 010°38'9 7.8
2014-Sep-12 10:26N 56°56' E 010°51'9 9.7
2014-Sep-12 09:33N 57°05' E 010°48'10 9.9
2014-Sep-12 08:33N 57°14' E 010°43'10 9.5
2014-Sep-12 07:32N 57°24' E 010°43'1010.1
2014-Sep-12 06:31N 57°34' E 010°44'12 9.7
2014-Sep-12 05:14N 57°47' E 010°44'710.4
2014-Sep-12 04:33N 57°47' E 010°31'1410.5
2014-Sep-12 03:13N 57°46' E 010°05'710.2
2014-Sep-12 02:33N 57°42' E 009°54'5910.8
2014-Sep-11 21:08N 57°11' E 008°21'910.7
2014-Sep-11 20:16N 57°04' E 008°10'811.1
2014-Sep-11 19:33N 56°58' E 008°02'1110.8
2014-Sep-11 18:33N 56°49' E 007°51'203 9.6
2014-Sep-10 21:25N 53°53' E 004°52'9 9.6
2014-Sep-10 20:31N 53°44' E 004°51'10 9.6
2014-Sep-10 19:27N 53°34' E 004°48'910.0
2014-Sep-10 18:33N 53°26' E 004°43'2711.1
2014-Sep-10 16:06N 53°01' E 004°24'611.0
2014-Sep-10 15:33N 52°56' E 004°20'1010.5
2014-Sep-10 14:33N 52°47' E 004°10'10 9.9
2014-Sep-10 13:33N 52°40' E 003°58'21 9.1
2014-Sep-10 11:18N 52°25' E 003°35'6 8.4
2014-Sep-10 10:32N 52°21' E 003°27'47 8.7
2014-Sep-10 05:08N 51°46' E 002°37'610.6
2014-Sep-10 04:33N 51°41' E 002°30'1211.1
2014-Sep-10 03:30N 51°32' E 002°18'1211.5
2014-Sep-10 02:28N 51°22' E 002°09'1111.7
2014-Sep-10 01:33N 51°13' E 002°00'141 9.4
2014-Sep-09 10:33N 50°06' W 001°17'  

Dump ship's entire track history